createdAt,value
2023-01-09T00:01:27.772Z,3.86
2023-01-09T00:03:55.995Z,3.93
2023-01-09T00:06:24.449Z,3.92
2023-01-09T00:08:54.098Z,3.97
2023-01-09T00:11:22.143Z,4.07
2023-01-09T00:13:50.272Z,4.09
2023-01-09T00:16:18.553Z,4.06
2023-01-09T00:18:46.659Z,4.11
2023-01-09T00:21:14.977Z,4.10
2023-01-09T00:23:43.080Z,4.11
2023-01-09T00:26:13.295Z,4.10
2023-01-09T00:28:41.993Z,4.13
2023-01-09T00:31:10.775Z,4.15
2023-01-09T00:33:40.814Z,4.13
2023-01-09T00:36:09.724Z,4.16
2023-01-09T00:38:38.141Z,4.17
2023-01-09T00:41:07.337Z,4.17
2023-01-09T00:43:40.261Z,4.19
2023-01-09T00:46:08.897Z,4.17
2023-01-09T00:48:39.369Z,4.18
2023-01-09T00:51:08.354Z,4.20
2023-01-09T00:53:38.492Z,4.21
2023-01-09T00:56:08.704Z,4.20
2023-01-09T00:58:38.686Z,4.17
2023-01-09T01:01:07.177Z,4.14
2023-01-09T01:03:35.375Z,4.17
2023-01-09T01:06:21.075Z,4.17
2023-01-09T01:08:49.241Z,4.10
2023-01-09T01:11:17.354Z,4.14
2023-01-09T01:13:47.267Z,4.13
2023-01-09T01:16:15.629Z,4.11
2023-01-09T01:18:43.697Z,4.10
2023-01-09T01:21:14.913Z,4.08
2023-01-09T01:23:43.218Z,4.08
2023-01-09T01:26:12.547Z,4.08
2023-01-09T01:28:40.899Z,4.08
2023-01-09T01:31:16.585Z,4.10
2023-01-09T01:33:44.907Z,4.09
2023-01-09T01:36:13.137Z,4.08
2023-01-09T01:38:41.460Z,4.07
2023-01-09T01:41:09.694Z,4.05
2023-01-09T01:43:50.555Z,4.07
2023-01-09T01:46:20.343Z,4.10
2023-01-09T01:48:49.433Z,4.10
2023-01-09T01:51:18.729Z,4.10
2023-01-09T01:53:48.862Z,4.18
2023-01-09T01:56:18.373Z,4.19
2023-01-09T01:58:48.973Z,4.22
2023-01-09T02:01:18.086Z,4.21
2023-01-09T02:03:48.170Z,4.25
2023-01-09T02:06:16.629Z,4.26
2023-01-09T02:08:44.942Z,4.31
2023-01-09T02:11:14.575Z,4.29
2023-01-09T02:13:43.220Z,4.33
2023-01-09T02:16:16.498Z,4.29
2023-01-09T02:18:59.471Z,4.34
2023-01-09T02:21:36.849Z,4.37
2023-01-09T02:24:29.307Z,4.35
2023-01-09T02:27:18.549Z,4.35
2023-01-09T02:30:04.583Z,4.38
2023-01-09T02:32:37.679Z,4.36
2023-01-09T02:35:13.038Z,4.36
2023-01-09T02:37:46.419Z,4.37
2023-01-09T02:40:22.692Z,4.36
2023-01-09T02:42:51.812Z,4.41
2023-01-09T02:45:20.077Z,4.40
2023-01-09T02:47:49.693Z,4.35
2023-01-09T02:50:21.202Z,4.35
2023-01-09T02:52:56.964Z,4.29
2023-01-09T02:55:32.145Z,4.35
2023-01-09T02:58:07.826Z,4.29
2023-01-09T03:00:37.701Z,4.31
2023-01-09T03:03:11.038Z,4.27
2023-01-09T03:05:42.538Z,4.26
2023-01-09T03:08:14.341Z,4.27
2023-01-09T03:10:45.499Z,4.25
2023-01-09T03:13:17.383Z,4.24
2023-01-09T03:15:47.001Z,4.22
2023-01-09T03:18:17.340Z,4.20
2023-01-09T03:20:45.995Z,4.21
2023-01-09T03:23:14.422Z,4.18
2023-01-09T03:25:42.635Z,4.16
2023-01-09T03:28:13.639Z,4.10
2023-01-09T03:30:41.927Z,4.01
2023-01-09T03:33:10.558Z,4.00
2023-01-09T03:35:40.060Z,3.95
2023-01-09T03:38:08.167Z,3.87
2023-01-09T03:40:36.195Z,3.86
2023-01-09T03:43:04.526Z,3.81
2023-01-09T03:45:32.888Z,3.78
2023-01-09T03:48:01.063Z,3.73
2023-01-09T03:50:29.207Z,3.69
2023-01-09T03:52:58.800Z,3.66
2023-01-09T03:55:26.895Z,3.69
2023-01-09T03:57:55.004Z,3.70
2023-01-09T04:00:23.291Z,3.71
2023-01-09T04:02:51.420Z,3.69
2023-01-09T04:05:19.600Z,3.66
2023-01-09T04:07:47.687Z,3.66
2023-01-09T04:10:17.547Z,3.59
2023-01-09T04:12:45.669Z,3.55
2023-01-09T04:15:13.970Z,3.47
2023-01-09T04:17:42.153Z,3.44
2023-01-09T04:20:10.914Z,3.36
2023-01-09T04:22:39.434Z,3.28
2023-01-09T04:25:07.983Z,3.23
2023-01-09T04:27:37.921Z,3.16
2023-01-09T04:30:06.501Z,3.13
2023-01-09T04:32:34.695Z,3.13
2023-01-09T04:35:02.801Z,3.12
2023-01-09T04:37:31.151Z,3.14
2023-01-09T04:39:59.403Z,3.17
2023-01-09T04:42:27.508Z,3.15
2023-01-09T04:44:57.033Z,3.16
2023-01-09T04:47:25.136Z,3.16
2023-01-09T04:49:53.397Z,3.17
2023-01-09T04:52:21.622Z,3.17
2023-01-09T04:54:49.694Z,3.16
2023-01-09T04:57:17.820Z,3.18
2023-01-09T04:59:46.060Z,3.20
2023-01-09T05:02:15.708Z,3.19
2023-01-09T05:04:44.278Z,3.18
2023-01-09T05:07:12.444Z,3.17
2023-01-09T05:09:40.506Z,3.07
2023-01-09T05:12:08.677Z,3.06
2023-01-09T05:14:36.950Z,3.03
2023-01-09T05:17:05.211Z,2.96
2023-01-09T05:19:34.846Z,2.94
2023-01-09T05:22:03.265Z,2.91
2023-01-09T05:24:31.457Z,2.87
2023-01-09T05:26:59.746Z,2.84
2023-01-09T05:29:28.286Z,2.80
2023-01-09T05:31:56.386Z,2.76
2023-01-09T05:34:24.660Z,2.78
2023-01-09T05:36:54.160Z,2.73
2023-01-09T05:39:22.460Z,2.73
2023-01-09T05:41:50.842Z,2.68
2023-01-09T05:44:19.062Z,2.69
2023-01-09T05:46:47.164Z,2.67
2023-01-09T05:49:15.353Z,2.68
2023-01-09T05:51:43.447Z,2.70
2023-01-09T05:54:13.068Z,2.69
2023-01-09T05:56:42.957Z,2.69
2023-01-09T05:59:11.178Z,2.70
2023-01-09T06:01:39.249Z,2.67
2023-01-09T06:04:07.422Z,2.68
2023-01-09T06:06:35.701Z,2.65
2023-01-09T06:09:04.367Z,2.67
2023-01-09T06:11:35.774Z,2.70
2023-01-09T06:14:03.995Z,2.76
2023-01-09T06:16:32.285Z,2.80
2023-01-09T06:19:00.529Z,2.81
2023-01-09T06:21:29.671Z,2.83
2023-01-09T06:23:57.773Z,2.85
2023-01-09T06:26:25.937Z,2.85
2023-01-09T06:28:56.377Z,2.87
2023-01-09T06:31:25.162Z,2.91
2023-01-09T06:33:53.415Z,2.92
2023-01-09T06:36:22.590Z,2.89
2023-01-09T06:38:50.980Z,2.87
2023-01-09T06:41:19.215Z,2.89
2023-01-09T06:43:47.560Z,2.89
2023-01-09T06:46:17.197Z,2.85
2023-01-09T06:48:45.347Z,2.83
2023-01-09T06:51:13.385Z,2.76
2023-01-09T06:53:41.676Z,2.70
2023-01-09T06:56:10.037Z,2.66
2023-01-09T06:58:38.330Z,2.61
2023-01-09T07:01:06.524Z,2.59
2023-01-09T07:03:36.077Z,2.55
2023-01-09T07:06:04.343Z,2.54
2023-01-09T07:08:32.597Z,2.49
2023-01-09T07:11:00.841Z,2.54
2023-01-09T07:13:29.182Z,2.52
2023-01-09T07:15:57.312Z,2.48
2023-01-09T07:18:25.632Z,2.47
2023-01-09T07:20:55.280Z,2.47
2023-01-09T07:23:25.460Z,2.45
2023-01-09T07:25:53.716Z,2.47
2023-01-09T07:28:21.810Z,2.42
2023-01-09T07:30:49.901Z,2.42
2023-01-09T07:33:18.092Z,2.41
2023-01-09T07:35:46.143Z,2.42
2023-01-09T07:38:15.941Z,2.42
2023-01-09T07:40:44.367Z,2.45
2023-01-09T07:43:12.662Z,2.46
2023-01-09T07:45:40.693Z,2.44
2023-01-09T07:48:08.880Z,2.44
2023-01-09T07:50:37.178Z,2.45
2023-01-09T07:53:05.259Z,2.45
2023-01-09T07:55:35.175Z,2.43
2023-01-09T07:58:03.380Z,2.42
2023-01-09T08:00:33.190Z,2.44
2023-01-09T08:03:01.518Z,2.44
2023-01-09T08:05:29.710Z,2.45
2023-01-09T08:07:57.937Z,2.44
2023-01-09T08:10:26.307Z,2.46
2023-01-09T08:12:56.232Z,2.44
2023-01-09T08:15:24.363Z,2.40
2023-01-09T08:17:52.547Z,2.41
2023-01-09T08:20:21.036Z,2.40
2023-01-09T08:22:53.660Z,2.39
2023-01-09T08:25:21.770Z,2.41
2023-01-09T08:27:49.888Z,2.41
2023-01-09T08:30:21.008Z,2.43
2023-01-09T08:32:50.396Z,2.44
2023-01-09T08:35:18.557Z,2.46
2023-01-09T08:37:46.904Z,2.48
2023-01-09T08:40:15.465Z,2.51
2023-01-09T08:43:12.597Z,2.50
2023-01-09T08:45:59.632Z,2.54
2023-01-09T08:48:27.753Z,2.52
2023-01-09T08:50:55.777Z,2.51
2023-01-09T08:53:23.974Z,2.52
2023-01-09T08:55:52.333Z,2.56
2023-01-09T08:58:20.454Z,2.59
2023-01-09T09:00:50.011Z,2.61
2023-01-09T09:03:18.681Z,2.61
2023-01-09T09:05:47.024Z,2.64
2023-01-09T09:08:15.843Z,2.71
2023-01-09T09:10:43.933Z,2.77
2023-01-09T09:13:12.145Z,2.80
2023-01-09T09:15:40.307Z,2.82
2023-01-09T09:18:10.086Z,2.85
2023-01-09T09:20:39.795Z,2.87
2023-01-09T09:23:08.927Z,2.96
2023-01-09T09:25:38.735Z,3.02
2023-01-09T09:28:07.053Z,3.03
2023-01-09T09:30:35.360Z,3.10
2023-01-09T09:33:04.405Z,3.13
2023-01-09T09:35:34.374Z,3.21
2023-01-09T09:38:05.799Z,3.31
2023-01-09T09:40:49.673Z,3.38
2023-01-09T09:44:03.193Z,3.47
2023-01-09T09:46:38.618Z,3.62
2023-01-09T09:49:11.899Z,3.71
2023-01-09T09:51:58.008Z,3.82
2023-01-09T09:54:31.466Z,3.79
2023-01-09T09:57:01.111Z,3.82
2023-01-09T09:59:30.926Z,3.83
2023-01-09T10:02:00.473Z,3.75
2023-01-09T10:04:32.339Z,3.77
2023-01-09T10:07:01.977Z,3.71
2023-01-09T10:09:35.525Z,3.74
2023-01-09T10:12:09.782Z,3.75
2023-01-09T10:14:38.472Z,3.72
2023-01-09T10:17:12.664Z,3.76
2023-01-09T10:19:48.087Z,3.77
2023-01-09T10:22:24.414Z,3.82
2023-01-09T10:25:11.886Z,3.74
2023-01-09T10:27:52.132Z,3.77
2023-01-09T10:30:27.323Z,3.92
2023-01-09T10:33:01.778Z,4.04
2023-01-09T10:35:47.351Z,4.25
2023-01-09T10:38:19.466Z,4.49
2023-01-09T10:40:51.656Z,4.57
2023-01-09T10:43:29.232Z,4.76
2023-01-09T10:46:00.408Z,4.93
2023-01-09T10:48:31.372Z,5.06
2023-01-09T10:51:00.124Z,5.14
2023-01-09T10:53:30.278Z,5.19
2023-01-09T10:56:02.198Z,5.35
2023-01-09T10:58:31.739Z,5.62
2023-01-09T11:01:01.618Z,5.85
2023-01-09T11:03:30.067Z,6.07
2023-01-09T11:05:59.755Z,6.29
2023-01-09T11:08:31.032Z,6.44
2023-01-09T11:10:59.891Z,6.64
2023-01-09T11:13:29.405Z,6.80
2023-01-09T11:16:05.068Z,7.06
2023-01-09T11:18:34.211Z,7.40
2023-01-09T11:21:14.105Z,7.70
2023-01-09T11:23:42.167Z,7.93
2023-01-09T11:26:22.943Z,8.08
2023-01-09T11:29:08.125Z,8.16
2023-01-09T11:31:38.056Z,8.15
2023-01-09T11:34:08.209Z,8.31
2023-01-09T11:36:36.292Z,8.39
2023-01-09T11:39:04.677Z,8.48
2023-01-09T11:41:35.734Z,8.62
2023-01-09T11:44:05.672Z,8.75
2023-01-09T11:46:35.426Z,8.73
2023-01-09T11:49:05.886Z,9.09
2023-01-09T11:51:35.542Z,9.12
2023-01-09T11:54:17.404Z,9.24
2023-01-09T11:56:46.189Z,9.11
2023-01-09T11:59:15.155Z,9.23
2023-01-09T12:01:52.262Z,9.27
2023-01-09T12:04:28.655Z,9.51
2023-01-09T12:07:11.939Z,9.40
2023-01-09T12:09:43.918Z,9.38
2023-01-09T12:12:18.376Z,9.43
2023-01-09T12:14:54.191Z,9.61
2023-01-09T12:17:32.239Z,9.50
2023-01-09T12:20:24.285Z,9.30
2023-01-09T12:22:58.154Z,9.58
2023-01-09T12:25:31.039Z,9.49
2023-01-09T12:28:15.785Z,9.41
2023-01-09T12:30:51.009Z,9.13
2023-01-09T12:33:27.173Z,9.19
2023-01-09T12:36:09.165Z,9.00
2023-01-09T12:38:42.724Z,8.67
2023-01-09T12:41:21.954Z,8.27
2023-01-09T12:43:57.221Z,8.08
2023-01-09T12:46:26.504Z,8.13
2023-01-09T12:49:03.436Z,8.20
2023-01-09T12:51:34.958Z,8.04
2023-01-09T12:54:07.460Z,7.96
2023-01-09T12:56:37.753Z,7.91
2023-01-09T12:59:11.171Z,7.88
2023-01-09T13:01:41.795Z,7.74
2023-01-09T13:04:14.070Z,7.78
2023-01-09T13:06:46.086Z,7.59
2023-01-09T13:09:22.040Z,7.48
2023-01-09T13:11:55.528Z,7.44
2023-01-09T13:14:27.261Z,7.21
2023-01-09T13:16:57.657Z,7.18
2023-01-09T13:19:28.964Z,7.07
2023-01-09T13:21:58.965Z,6.95
2023-01-09T13:24:32.530Z,6.85
2023-01-09T13:27:02.331Z,6.87
2023-01-09T13:29:32.289Z,6.86
2023-01-09T13:32:15.559Z,6.79
2023-01-09T13:34:46.604Z,6.81
2023-01-09T13:37:22.604Z,6.78
2023-01-09T13:39:58.188Z,6.80
2023-01-09T13:42:39.345Z,6.79
2023-01-09T13:45:12.675Z,6.59
2023-01-09T13:47:40.952Z,6.65
2023-01-09T13:50:33.094Z,6.64
2023-01-09T13:53:25.166Z,6.50
2023-01-09T13:56:07.577Z,6.51
2023-01-09T13:58:51.360Z,6.49
2023-01-09T14:01:40.044Z,6.40
2023-01-09T14:04:27.140Z,6.43
2023-01-09T14:07:10.209Z,6.46
2023-01-09T14:09:38.922Z,6.47
2023-01-09T14:12:09.002Z,6.49
2023-01-09T14:14:37.531Z,6.40
2023-01-09T14:17:16.287Z,6.48
2023-01-09T14:19:44.912Z,6.45
2023-01-09T14:22:25.279Z,6.49
2023-01-09T14:24:56.433Z,6.50
2023-01-09T14:27:44.102Z,6.49
2023-01-09T14:30:28.988Z,6.47
2023-01-09T14:32:58.054Z,6.39
2023-01-09T14:35:47.241Z,6.40
2023-01-09T14:38:21.493Z,6.37
2023-01-09T14:40:53.500Z,6.36
2023-01-09T14:43:25.840Z,6.32
2023-01-09T14:46:00.008Z,6.29
2023-01-09T14:48:28.962Z,6.23
2023-01-09T14:50:59.913Z,6.17
2023-01-09T14:53:30.730Z,6.16
2023-01-09T14:55:59.706Z,6.15
2023-01-09T14:58:29.068Z,6.11
2023-01-09T15:01:02.012Z,6.02
2023-01-09T15:03:33.235Z,6.01
2023-01-09T15:06:02.336Z,5.92
2023-01-09T15:08:31.183Z,5.90
2023-01-09T15:11:00.551Z,5.91
2023-01-09T15:13:31.341Z,5.80
2023-01-09T15:16:02.031Z,5.70
2023-01-09T15:18:32.155Z,5.68
2023-01-09T15:21:01.927Z,5.69
2023-01-09T15:23:31.109Z,5.68
2023-01-09T15:26:13.053Z,5.60
2023-01-09T15:28:42.308Z,5.56
2023-01-09T15:31:14.915Z,5.53
2023-01-09T15:33:43.991Z,5.48
2023-01-09T15:36:15.040Z,5.43
2023-01-09T15:38:43.996Z,5.35
2023-01-09T15:41:13.418Z,5.27
2023-01-09T15:43:41.547Z,5.28
2023-01-09T15:46:10.794Z,5.18
2023-01-09T15:48:40.311Z,5.21
2023-01-09T15:51:10.507Z,5.20
2023-01-09T15:53:38.736Z,5.16
2023-01-09T15:56:09.001Z,5.15
2023-01-09T15:58:38.636Z,5.10
2023-01-09T16:01:08.157Z,5.08
2023-01-09T16:03:37.595Z,5.05
2023-01-09T16:06:24.165Z,4.99
2023-01-09T16:08:55.954Z,4.91
2023-01-09T16:11:25.640Z,4.91
2023-01-09T16:13:54.980Z,4.88
2023-01-09T16:16:28.290Z,4.79
2023-01-09T16:18:56.959Z,4.79
2023-01-09T16:21:34.751Z,4.76
2023-01-09T16:24:06.128Z,4.71
2023-01-09T16:26:34.814Z,4.70
2023-01-09T16:29:22.569Z,4.68
2023-01-09T16:31:52.187Z,4.65
2023-01-09T16:34:20.466Z,4.63
2023-01-09T16:36:50.008Z,4.60
2023-01-09T16:39:18.934Z,4.57
2023-01-09T16:42:04.613Z,4.52
2023-01-09T16:44:32.985Z,4.50
2023-01-09T16:47:01.254Z,4.47
2023-01-09T16:49:29.809Z,4.47
2023-01-09T16:52:03.011Z,4.46
2023-01-09T16:54:31.663Z,4.44
2023-01-09T16:57:01.636Z,4.42
2023-01-09T16:59:29.966Z,4.44
2023-01-09T17:01:58.109Z,4.42
2023-01-09T17:04:26.489Z,4.42
2023-01-09T17:06:54.703Z,4.41
2023-01-09T17:09:27.530Z,4.39
2023-01-09T17:11:55.843Z,4.38
2023-01-09T17:14:24.727Z,4.36
2023-01-09T17:16:53.122Z,4.33
2023-01-09T17:19:21.779Z,4.32
2023-01-09T17:21:50.069Z,4.31
2023-01-09T17:24:31.876Z,4.29
2023-01-09T17:27:19.464Z,4.31
2023-01-09T17:29:47.939Z,4.28
2023-01-09T17:32:16.939Z,4.28
2023-01-09T17:34:45.233Z,4.28
2023-01-09T17:37:15.556Z,4.30
2023-01-09T17:39:43.829Z,4.25
2023-01-09T17:42:13.602Z,4.27
2023-01-09T17:44:42.033Z,4.27
2023-01-09T17:47:13.725Z,4.28
2023-01-09T17:49:42.495Z,4.31
2023-01-09T17:52:11.108Z,4.35
2023-01-09T17:54:39.202Z,4.35
2023-01-09T17:57:08.588Z,4.35
2023-01-09T17:59:38.223Z,4.38
2023-01-09T18:02:07.397Z,4.37
2023-01-09T18:04:39.162Z,4.34
2023-01-09T18:07:07.499Z,4.36
2023-01-09T18:09:35.557Z,4.32
2023-01-09T18:12:03.798Z,4.26
2023-01-09T18:14:32.259Z,4.21
2023-01-09T18:17:02.560Z,4.13
2023-01-09T18:19:30.673Z,4.07
2023-01-09T18:21:59.978Z,4.07
2023-01-09T18:24:28.258Z,4.03
2023-01-09T18:26:56.314Z,4.02
2023-01-09T18:29:24.796Z,4.02
2023-01-09T18:31:52.962Z,4.00
2023-01-09T18:34:22.743Z,3.98
2023-01-09T18:36:51.210Z,3.93
2023-01-09T18:39:19.262Z,3.95
2023-01-09T18:41:47.329Z,3.90
2023-01-09T18:44:17.613Z,3.85
2023-01-09T18:46:47.150Z,3.83
2023-01-09T18:49:15.616Z,3.85
2023-01-09T18:51:45.643Z,3.80
2023-01-09T18:54:14.391Z,3.77
2023-01-09T18:56:42.564Z,3.78
2023-01-09T18:59:10.930Z,3.76
2023-01-09T19:01:39.568Z,3.75
2023-01-09T19:04:08.467Z,3.76
2023-01-09T19:06:36.988Z,3.74
2023-01-09T19:09:06.840Z,3.71
2023-01-09T19:11:35.120Z,3.67
2023-01-09T19:14:03.571Z,3.60
2023-01-09T19:16:32.175Z,3.61
2023-01-09T19:19:02.787Z,3.56
2023-01-09T19:21:31.053Z,3.57
2023-01-09T19:23:59.254Z,3.54
2023-01-09T19:26:31.038Z,3.55
2023-01-09T19:28:59.581Z,3.58
2023-01-09T19:31:28.873Z,3.58
2023-01-09T19:33:57.135Z,3.61
2023-01-09T19:36:25.335Z,3.62
2023-01-09T19:38:56.694Z,3.64
2023-01-09T19:41:25.021Z,3.65
2023-01-09T19:43:54.643Z,3.69
2023-01-09T19:46:24.162Z,3.68
2023-01-09T19:48:52.746Z,3.62
2023-01-09T19:51:21.486Z,3.61
2023-01-09T19:53:53.601Z,3.59
2023-01-09T19:56:22.469Z,3.56
2023-01-09T19:58:51.804Z,3.53
2023-01-09T20:01:23.759Z,3.51
2023-01-09T20:03:52.576Z,3.49
2023-01-09T20:06:24.331Z,3.46
2023-01-09T20:08:54.034Z,3.44
2023-01-09T20:11:22.917Z,3.41
2023-01-09T20:13:51.579Z,3.37
2023-01-09T20:16:22.525Z,3.36
2023-01-09T20:18:51.236Z,3.36
2023-01-09T20:23:51.386Z,3.37
2023-01-09T20:26:19.739Z,3.37
2023-01-09T20:28:48.448Z,3.40
2023-01-09T20:31:18.682Z,3.41
2023-01-09T20:33:49.368Z,3.42
2023-01-09T20:36:19.080Z,3.40
2023-01-09T20:38:47.563Z,3.43
2023-01-09T20:41:22.940Z,3.42
2023-01-09T20:43:53.957Z,3.42
2023-01-09T20:46:24.509Z,3.45
2023-01-09T20:48:56.458Z,3.45
2023-01-09T20:51:24.703Z,3.42
2023-01-09T20:53:55.851Z,3.44
2023-01-09T20:56:24.516Z,3.45
2023-01-09T20:58:53.190Z,3.49
2023-01-09T21:01:22.968Z,3.49
2023-01-09T21:03:52.820Z,3.51
2023-01-09T21:06:23.778Z,3.52
2023-01-09T21:08:53.308Z,3.51
2023-01-09T21:11:22.074Z,3.56
2023-01-09T21:13:51.038Z,3.55
2023-01-09T21:16:21.817Z,3.59
2023-01-09T21:18:50.656Z,3.61
2023-01-09T21:21:20.059Z,3.62
2023-01-09T21:23:52.090Z,3.66
2023-01-09T21:26:22.866Z,3.65
2023-01-09T21:28:51.767Z,3.67
2023-01-09T21:31:21.821Z,3.69
2023-01-09T21:33:49.984Z,3.68
2023-01-09T21:36:19.080Z,3.63
2023-01-09T21:38:47.780Z,3.58
2023-01-09T21:41:35.849Z,3.56
2023-01-09T21:44:21.536Z,3.52
2023-01-09T21:46:53.200Z,3.50
2023-01-09T21:49:23.260Z,3.51
2023-01-09T21:51:51.481Z,3.48
2023-01-09T21:54:20.236Z,3.50
2023-01-09T21:56:50.334Z,3.49
2023-01-09T21:59:18.636Z,3.48
2023-01-09T22:01:47.791Z,3.52
2023-01-09T22:04:16.723Z,3.54
2023-01-09T22:06:45.442Z,3.48
2023-01-09T22:09:14.003Z,3.49
2023-01-09T22:11:43.140Z,3.48
2023-01-09T22:14:15.134Z,3.50
2023-01-09T22:16:43.848Z,3.52
2023-01-09T22:19:12.915Z,3.51
2023-01-09T22:21:41.261Z,3.47
2023-01-09T22:24:11.225Z,3.54
2023-01-09T22:26:39.809Z,3.53
2023-01-09T22:29:07.858Z,3.54
2023-01-09T22:31:40.228Z,3.56
2023-01-09T22:34:08.854Z,3.60
2023-01-09T22:36:38.178Z,3.56
2023-01-09T22:39:07.025Z,3.58
2023-01-09T22:41:36.298Z,3.60
2023-01-09T22:44:04.783Z,3.63
2023-01-09T22:46:33.851Z,3.63
2023-01-09T22:49:04.286Z,3.65
2023-01-09T22:51:33.991Z,3.66
2023-01-09T22:54:02.065Z,3.69
2023-01-09T22:56:32.385Z,3.70
2023-01-09T22:59:01.672Z,3.76
2023-01-09T23:01:30.205Z,3.73
2023-01-09T23:03:58.708Z,3.77
2023-01-09T23:06:28.658Z,3.82
2023-01-09T23:08:56.887Z,3.81
2023-01-09T23:11:43.926Z,3.83
2023-01-09T23:14:12.976Z,3.85
2023-01-09T23:16:41.136Z,3.85
2023-01-09T23:19:12.983Z,3.85
2023-01-09T23:21:42.984Z,3.83
2023-01-09T23:24:12.056Z,3.85
2023-01-09T23:26:40.384Z,3.86
2023-01-09T23:29:09.185Z,3.83
2023-01-09T23:31:38.338Z,3.90
2023-01-09T23:34:08.483Z,3.88
2023-01-09T23:36:36.810Z,3.92
2023-01-09T23:39:09.123Z,3.92
2023-01-09T23:41:54.814Z,3.91
2023-01-09T23:44:23.356Z,3.92
2023-01-09T23:46:52.535Z,3.97
2023-01-09T23:49:21.557Z,3.97
2023-01-09T23:51:50.766Z,3.98
2023-01-09T23:54:21.594Z,3.98
2023-01-09T23:56:50.006Z,4.02
2023-01-09T23:59:18.258Z,4.01
